SEAM/ATF METAR and TAF weather

Enter ICAO airport designator
Station Type Date Time Source
SEAM METAR 2022/12/05 13:00 UTC NOAA

SEAM 051300Z 00000KT 9999 SCT020 12/10 Q1028


Station Type Date Time Source
SEAM Decoded METAR 2022/12/05 13:00 UTC NOAA

Ambato / Chachoan, Ecuador (SEAM) 01-12S 078-34W
Dec 05, 2022 - 08:00 AM EST / 2022.12.05 1300 UTC
Wind: Calm:0
Visibility: greater than 7 mile(s):0
Sky conditions: partly cloudy
Temperature: 53 F (12 C)
Dew Point: 50 F (10 C)
Relative Humidity: 87%
Pressure (altimeter): 30.36 in. Hg (1028 hPa)
ob: SEAM 051300Z 00000KT 9999 SCT020 12/10 Q1028
cycle: 13

Station Type Date Time Source
SEAM TAF UTC NOAA

Error!

Example: see airport list